Allen's Hourly Summary for Wednesday, May 16, 2018
Hour Temp
(f)
RH
(%)
Solar Rad.
(MJ/m2)
Rainfall
(in)
Wind
(mph)
5/16/2018 12:00 AM 70 71 0 0 0.39
5/16/2018 1:00 AM 68 76 0 0 1.14
5/16/2018 2:00 AM 66 77 0 0 1.38
5/16/2018 3:00 AM 65 79 0 0 1.61
5/16/2018 4:00 AM 65 80 0 0 1.19
5/16/2018 5:00 AM 65 80 0 0 0.91
5/16/2018 6:00 AM 65 82 0 0 2.12
5/16/2018 7:00 AM 66 82 0.04 0 0.82
5/16/2018 8:00 AM 67 70 0.37 0 0.7
5/16/2018 9:00 AM 72 56 1.16 0 0.52
5/16/2018 10:00 AM 76 52 1.97 0 0.64
5/16/2018 11:00 AM 79 49 2.32 0 0.94
5/16/2018 12:00 PM 80 50 1.59 0 0.75
5/16/2018 1:00 PM 82 47 2.96 0 1.51
5/16/2018 2:00 PM 83 43 3.28 0 1.83
5/16/2018 3:00 PM 86 39 3.15 0 2.44
5/16/2018 4:00 PM 87 33 2.7 0 2.95
5/16/2018 5:00 PM 88 30 2.28 0 3.31
5/16/2018 6:00 PM 87 33 1.58 0 3.55
5/16/2018 7:00 PM 85 37 0.83 0 3.52
5/16/2018 8:00 PM 82 42 0.09 0 2.89
5/16/2018 9:00 PM 79 48 0.01 0 2
5/16/2018 10:00 PM 76 57 0 0 0.6
5/16/2018 11:00 PM 74 63 0 0 0.31
Data Summary 75 57 24.33 0.00 1.58